Jonesboro Municipal Airport
KJBR : now visible

Airfield :











YOU CAN JOIN US ON...

 
LOGIN :

Register | Disclaimer

   EN    FR    IT 

 









Legend :    VFR   Marginal VFR   IFR   Intensive IFR   Very Intensive IFR
Visi :
Ceiling :
>= 8 km
>= 3000ft
5 to 8 km
1000 to 3000 ft
1500m to 5 km
500 to 1000 ft
800 to 1500m
200 to 500 ft
< 800m
< 200 ft
Symbols :   Thunderstorms  Fog  Heavy snow  Heavy precipitations  Wind > 20 kt






- Airport Elevation : 262 ft
- IATA code : JBR


KJBR - Jonesboro Municipal

CURRENT METAR :
  • 190153Z AUTO 21007KT 10SM OVC095 11/04 A2983 RMK AO2 SLP100 T01110044 $

EXPIRED METARs :
  • 190053Z AUTO 20008KT 10SM OVC090 12/04 A2983 RMK AO2 SLP102 T01170044 $
  • 182353Z AUTO 19006KT 10SM SCT080 OVC095 11/04 A2983 RMK AO2 SLP102 T01110044 10133 20111 55004 $

TAF KJBR
Valid from the 19 at 00:00 until the 20 at 00:00 UTC


182335Z 1900/1924 20006KT P6SM BKN090
FM190100 21004KT P6SM BKN070
FM190600 22005KT P6SM VCSH BKN070 WS016/27035KT
FM190900 24005KT P6SM FEW070
FM191300 27008KT P6SM SKC



MET'MAP, your aeronautical weather chart ! - Copyright ORBIFLY December 2007 - Disclaimer

ORBIFLY MET'MAP TEAM :

Programming & Development : Alexandra Zaïnal
Concept & Development : Baudouin d'Aumeries
Co-Development & Prog : Marc-Olivier Méhu
Technical & hardware support : Manuel Goepfert

Contact : metmap@orbifly.com




SOURCES & CREDITS :

   NOAA       Earth
Advisory